createdAt,value
2023-01-31T00:00:32.865Z,2.7
2023-01-31T00:05:33.040Z,2.7
2023-01-31T00:10:33.278Z,2.7
2023-01-31T00:15:33.541Z,1.7
2023-01-31T00:20:32.703Z,1.7
2023-01-31T00:25:32.879Z,1.3
2023-01-31T00:30:33.059Z,1.3
2023-01-31T00:35:33.259Z,1.3
2023-01-31T00:40:33.429Z,1.3
2023-01-31T00:45:33.498Z,1.8
2023-01-31T00:50:33.578Z,1.8
2023-01-31T00:55:32.726Z,1.4
2023-01-31T01:00:33.035Z,1.4
2023-01-31T01:05:33.248Z,1.8
2023-01-31T01:10:34.161Z,1.8
2023-01-31T01:15:33.029Z,1.1
2023-01-31T01:20:34.141Z,1.1
2023-01-31T01:25:34.474Z,0.9
2023-01-31T01:30:34.307Z,0.9
2023-01-31T01:35:34.188Z,0.8
2023-01-31T01:40:33.675Z,0.8
2023-01-31T01:45:33.198Z,0.5
2023-01-31T01:50:33.384Z,0.5
2023-01-31T01:55:33.535Z,0.9
2023-01-31T02:00:32.889Z,0.9
2023-01-31T02:05:33.053Z,1.3
2023-01-31T02:10:33.539Z,1.3
2023-01-31T02:15:32.795Z,0.4
2023-01-31T02:20:33.371Z,0.4
2023-01-31T02:25:33.651Z,1
2023-01-31T02:30:33.228Z,1
2023-01-31T02:35:33.285Z,2.2
2023-01-31T02:40:33.360Z,2.2
2023-01-31T02:45:33.654Z,0.9
2023-01-31T02:50:33.222Z,0.9
2023-01-31T02:55:33.680Z,1.3
2023-01-31T03:00:33.143Z,1.3
2023-01-31T03:05:33.478Z,0.9
2023-01-31T03:10:33.108Z,0.9
2023-01-31T03:15:33.668Z,0.9
2023-01-31T03:20:32.909Z,0.9
2023-01-31T03:25:33.203Z,0.9
2023-01-31T03:30:33.624Z,0.9
2023-01-31T03:35:33.626Z,0.9
2023-01-31T03:40:33.540Z,0.9
2023-01-31T03:45:33.812Z,0.9
2023-01-31T03:50:33.128Z,0.9
2023-01-31T03:55:33.554Z,0.9
2023-01-31T04:00:33.102Z,0.9
2023-01-31T04:05:33.281Z,0.9
2023-01-31T04:10:32.986Z,0.9
2023-01-31T09:06:25.412Z,2.2
2023-01-31T09:10:33.854Z,2.2
2023-01-31T09:15:33.110Z,3.1
2023-01-31T09:20:33.803Z,3.1
2023-01-31T09:25:48.018Z,2.9
2023-01-31T09:30:33.609Z,2.9
2023-01-31T09:35:34.386Z,2.2
2023-01-31T09:40:33.367Z,2.2
2023-01-31T09:45:33.507Z,2.2
2023-01-31T09:50:33.900Z,2.2
2023-01-31T09:55:33.352Z,2.3
2023-01-31T10:00:34.133Z,2.3
2023-01-31T10:05:33.500Z,2.2
2023-01-31T10:10:33.792Z,2.2
2023-01-31T10:15:32.973Z,2.3
2023-01-31T10:20:33.372Z,2.3
2023-01-31T10:25:33.396Z,2.8
2023-01-31T10:30:33.619Z,2.8
2023-01-31T10:35:33.401Z,2.8
2023-01-31T10:40:33.506Z,2.8
2023-01-31T10:45:34.010Z,2.8
2023-01-31T10:50:33.777Z,2.8
2023-01-31T10:55:33.997Z,2.9
2023-01-31T11:00:33.087Z,2.9
2023-01-31T11:05:33.189Z,3.2
2023-01-31T11:10:33.412Z,3.2
2023-01-31T11:15:33.463Z,2.7
2023-01-31T11:20:33.542Z,2.7
2023-01-31T11:25:33.042Z,2.7
2023-01-31T11:30:33.225Z,2.7
2023-01-31T11:35:33.363Z,2.9
2023-01-31T11:40:33.420Z,2.9
2023-01-31T11:45:33.526Z,2.5
2023-01-31T11:50:33.695Z,2.5
2023-01-31T11:55:33.891Z,2.7
2023-01-31T12:00:33.019Z,2.7
2023-01-31T12:05:33.125Z,2.8
2023-01-31T12:10:33.478Z,2.8
2023-01-31T12:15:33.464Z,2.8
2023-01-31T12:20:33.540Z,2.8
2023-01-31T12:25:33.112Z,3.1
2023-01-31T12:30:33.400Z,3.1
2023-01-31T12:35:33.596Z,3.1
2023-01-31T12:40:33.830Z,3.1
2023-01-31T12:45:33.895Z,2.2
2023-01-31T12:50:34.018Z,2.2
2023-01-31T12:55:34.028Z,2.4
2023-01-31T13:00:33.270Z,2.4
2023-01-31T13:05:33.196Z,2.7
2023-01-31T13:10:33.393Z,2.7
2023-01-31T13:15:33.623Z,2.7
2023-01-31T13:20:33.797Z,2.7
2023-01-31T13:25:33.920Z,2.7
2023-01-31T13:30:34.222Z,2.7
2023-01-31T13:35:33.465Z,2.4
2023-01-31T13:40:33.657Z,2.4
2023-01-31T13:45:33.967Z,2.7
2023-01-31T13:50:33.199Z,2.7
2023-01-31T13:55:33.290Z,2.7
2023-01-31T14:00:33.252Z,2.7
2023-01-31T14:05:33.317Z,2.7
2023-01-31T14:10:33.628Z,2.7
2023-01-31T14:15:33.896Z,2.9
2023-01-31T14:20:33.401Z,2.9
2023-01-31T14:25:33.576Z,2.9
2023-01-31T14:30:33.848Z,2.9
2023-01-31T14:35:33.963Z,2.2
2023-01-31T14:40:34.079Z,2.2
2023-01-31T14:45:33.320Z,3.1
2023-01-31T14:50:33.395Z,3.1
2023-01-31T14:55:33.716Z,2.7
2023-01-31T15:00:33.891Z,2.7
2023-01-31T15:05:33.159Z,2.5
2023-01-31T15:10:33.782Z,2.5
2023-01-31T15:15:33.927Z,3.1
2023-01-31T15:20:33.251Z,3.1
2023-01-31T15:25:33.871Z,3.1
2023-01-31T15:30:34.580Z,3.1
2023-01-31T15:35:33.152Z,3.1
2023-01-31T15:40:34.123Z,3.1
2023-01-31T15:45:33.367Z,3.6
2023-01-31T15:50:34.205Z,3.6
2023-01-31T15:55:33.673Z,3.6
2023-01-31T16:00:34.031Z,3.6
2023-01-31T16:05:33.405Z,3.6
2023-01-31T16:10:34.033Z,3.6
2023-01-31T16:15:33.152Z,3.7
2023-01-31T16:20:33.526Z,3.7
2023-01-31T16:25:33.795Z,5.5
2023-01-31T16:30:34.031Z,5.5
2023-01-31T16:35:33.772Z,3.6
2023-01-31T16:40:33.883Z,3.6
2023-01-31T16:45:34.189Z,3.5
2023-01-31T16:50:43.917Z,3.5
2023-01-31T16:55:33.208Z,2.7
2023-01-31T17:00:33.422Z,2.7
2023-01-31T17:05:33.539Z,3.3
2023-01-31T17:10:33.746Z,3.3
2023-01-31T17:15:34.161Z,3.1
2023-01-31T17:20:33.417Z,3.1
2023-01-31T17:25:33.497Z,3.1
2023-01-31T17:30:33.631Z,3.1
2023-01-31T17:35:33.853Z,3.4
2023-01-31T17:40:34.216Z,3.4
2023-01-31T17:45:33.738Z,3.1
2023-01-31T17:50:33.863Z,3.1
2023-01-31T17:55:33.839Z,3.2
2023-01-31T18:00:33.896Z,3.2
2023-01-31T18:05:39.722Z,2.7
2023-01-31T18:10:34.043Z,2.7
2023-01-31T18:15:34.111Z,2.8
2023-01-31T18:20:34.242Z,2.8
2023-01-31T18:25:33.291Z,2.6
2023-01-31T18:30:33.512Z,2.6
2023-01-31T18:35:33.666Z,2.2
2023-01-31T18:40:33.751Z,2.2
2023-01-31T18:45:33.741Z,2.7
2023-01-31T18:50:33.820Z,2.7
2023-01-31T18:55:34.048Z,3
2023-01-31T19:00:34.329Z,3
2023-01-31T19:05:33.427Z,3.2
2023-01-31T19:10:33.483Z,3.2
2023-01-31T19:15:34.011Z,2.7
2023-01-31T19:20:33.568Z,2.7
2023-01-31T19:25:34.146Z,3.1
2023-01-31T19:30:33.829Z,3.1
2023-01-31T19:35:34.055Z,2.7
2023-01-31T19:40:34.086Z,2.7
2023-01-31T19:45:34.257Z,2.7
2023-01-31T19:50:33.406Z,2.7
2023-01-31T19:55:33.640Z,2.7
2023-01-31T20:00:33.810Z,2.7
2023-01-31T20:05:33.978Z,3.4
2023-01-31T20:10:34.294Z,3.4
2023-01-31T20:15:33.346Z,3.1
2023-01-31T20:20:33.460Z,3.1
2023-01-31T20:25:33.856Z,2.6
2023-01-31T20:30:34.078Z,2.6
2023-01-31T20:35:33.472Z,2
2023-01-31T20:40:33.812Z,2
2023-01-31T20:45:34.074Z,3.2
2023-01-31T20:50:34.156Z,3.2
2023-01-31T20:55:34.199Z,3.3
2023-01-31T21:00:34.249Z,3.3
2023-01-31T21:05:33.298Z,3.8
2023-01-31T21:10:33.867Z,3.8
2023-01-31T21:15:34.123Z,2.6
2023-01-31T21:20:33.447Z,2.6
2023-01-31T21:25:33.381Z,2.6
2023-01-31T21:30:33.443Z,2.6
2023-01-31T21:35:33.614Z,3.1
2023-01-31T21:40:33.749Z,3.1
2023-01-31T21:45:34.123Z,2.3
2023-01-31T21:50:34.272Z,2.3
2023-01-31T21:55:33.521Z,2.7
2023-01-31T22:00:33.724Z,2.7
2023-01-31T22:05:34.147Z,3.2
2023-01-31T22:10:33.624Z,3.2
2023-01-31T22:15:33.695Z,3.2
2023-01-31T22:20:34.036Z,3.2
2023-01-31T22:25:34.112Z,3.4
2023-01-31T22:30:34.242Z,3.4
2023-01-31T22:35:34.345Z,3.1
2023-01-31T22:40:33.507Z,3.1
2023-01-31T22:45:33.592Z,3.6
2023-01-31T22:50:33.794Z,3.6
2023-01-31T22:55:36.880Z,4
2023-01-31T23:00:33.951Z,4
2023-01-31T23:05:34.072Z,3.1
2023-01-31T23:10:33.832Z,3.1
2023-01-31T23:15:34.031Z,3.6
2023-01-31T23:20:34.134Z,3.6
2023-01-31T23:25:34.584Z,3.1
2023-01-31T23:30:33.908Z,3.1
2023-01-31T23:35:34.041Z,3.2
2023-01-31T23:40:34.338Z,3.2
2023-01-31T23:45:34.357Z,3.1
2023-01-31T23:55:33.743Z,3.1
